createdAt,value
2023-05-05T00:00:29.294Z,233.11
2023-05-05T00:01:29.210Z,231.49
2023-05-05T00:02:29.198Z,234.51
2023-05-05T00:03:29.072Z,233.22
2023-05-05T00:04:28.897Z,233.04
2023-05-05T00:05:28.823Z,233.04
2023-05-05T00:06:28.703Z,231.87
2023-05-05T00:07:28.613Z,233.00
2023-05-05T00:08:28.505Z,232.69
2023-05-05T00:09:28.368Z,232.94
2023-05-05T00:10:28.256Z,232.98
2023-05-05T00:11:28.140Z,232.24
2023-05-05T00:12:28.040Z,231.65
2023-05-05T00:13:27.919Z,233.37
2023-05-05T00:14:27.783Z,230.75
2023-05-05T00:15:27.659Z,232.29
2023-05-05T00:16:27.550Z,232.25
2023-05-05T00:17:27.366Z,230.78
2023-05-05T00:18:27.226Z,231.66
2023-05-05T00:19:27.093Z,232.08
2023-05-05T00:20:26.979Z,232.19
2023-05-05T00:21:26.866Z,231.49
2023-05-05T00:22:26.763Z,232.04
2023-05-05T00:23:26.639Z,232.03
2023-05-05T00:24:26.513Z,231.87
2023-05-05T00:25:26.393Z,232.19
2023-05-05T00:26:26.304Z,231.91
2023-05-05T00:27:26.165Z,230.37
2023-05-05T00:28:26.063Z,233.04
2023-05-05T00:29:25.969Z,232.55
2023-05-05T00:30:25.867Z,230.99
2023-05-05T00:31:25.791Z,233.03
2023-05-05T00:32:25.680Z,231.49
2023-05-05T00:33:25.554Z,232.00
2023-05-05T00:34:25.460Z,230.73
2023-05-05T00:35:25.371Z,231.61
2023-05-05T00:36:25.296Z,230.62
2023-05-05T00:37:25.187Z,232.72
2023-05-05T00:38:25.081Z,229.73
2023-05-05T00:39:24.982Z,230.63
2023-05-05T00:40:24.902Z,230.95
2023-05-05T00:41:24.802Z,230.50
2023-05-05T00:42:24.714Z,230.09
2023-05-05T00:43:24.619Z,231.59
2023-05-05T00:44:24.535Z,230.17
2023-05-05T00:45:24.427Z,230.64
2023-05-05T00:46:24.335Z,231.34
2023-05-05T00:47:24.199Z,231.38
2023-05-05T00:48:24.001Z,231.25
2023-05-05T00:49:23.862Z,231.33
2023-05-05T00:50:23.704Z,230.95
2023-05-05T00:51:23.513Z,231.10
2023-05-05T00:52:23.362Z,231.50
2023-05-05T00:53:23.192Z,230.07
2023-05-05T00:54:23.030Z,229.65
2023-05-05T00:55:22.891Z,230.56
2023-05-05T00:56:22.807Z,231.11
2023-05-05T00:57:22.702Z,229.86
2023-05-05T00:58:22.600Z,230.16
2023-05-05T00:59:22.519Z,230.60
2023-05-05T01:00:22.414Z,230.57
2023-05-05T01:01:22.303Z,229.90
2023-05-05T01:02:22.192Z,228.87
2023-05-05T01:03:22.125Z,230.30
2023-05-05T01:04:21.945Z,229.82
2023-05-05T01:05:21.809Z,229.46
2023-05-05T01:06:21.663Z,229.21
2023-05-05T01:07:21.540Z,229.95
2023-05-05T01:08:21.403Z,229.34
2023-05-05T01:09:21.278Z,229.09
2023-05-05T01:10:21.248Z,229.99
2023-05-05T01:11:21.077Z,229.65
2023-05-05T01:12:20.958Z,229.29
2023-05-05T01:13:20.824Z,230.66
2023-05-05T01:14:20.705Z,229.36
2023-05-05T01:15:20.567Z,228.32
2023-05-05T01:16:20.497Z,229.62
2023-05-05T01:17:20.351Z,228.15
2023-05-05T01:18:20.207Z,230.11
2023-05-05T01:19:20.073Z,228.36
2023-05-05T01:20:19.954Z,229.65
2023-05-05T01:21:19.783Z,228.56
2023-05-05T01:22:19.651Z,228.66
2023-05-05T01:23:19.532Z,227.95
2023-05-05T01:24:19.405Z,228.87
2023-05-05T01:25:19.330Z,228.35
2023-05-05T01:26:19.253Z,228.62
2023-05-05T01:27:19.139Z,228.99
2023-05-05T01:28:19.033Z,227.14
2023-05-05T01:29:18.948Z,228.06
2023-05-05T01:30:18.841Z,228.68
2023-05-05T01:31:18.739Z,228.54
2023-05-05T01:32:18.638Z,228.66
2023-05-05T01:33:18.526Z,228.62
2023-05-05T01:34:18.426Z,228.10
2023-05-05T01:35:18.352Z,228.37
2023-05-05T01:36:18.275Z,228.76
2023-05-05T01:37:18.137Z,228.21
2023-05-05T01:38:18.019Z,228.89
2023-05-05T01:39:17.916Z,229.01
2023-05-05T01:40:17.800Z,227.72
2023-05-05T01:41:17.742Z,227.90
2023-05-05T01:42:17.658Z,228.71
2023-05-05T01:43:17.549Z,229.09
2023-05-05T01:44:17.406Z,228.20
2023-05-05T01:45:17.285Z,228.49
2023-05-05T01:46:17.278Z,228.33
2023-05-05T01:47:17.127Z,227.61
2023-05-05T01:48:16.977Z,227.63
2023-05-05T01:49:16.882Z,227.62
2023-05-05T01:50:16.785Z,226.83
2023-05-05T01:51:16.690Z,226.81
2023-05-05T01:52:16.590Z,226.98
2023-05-05T01:53:16.483Z,228.05
2023-05-05T01:54:16.369Z,228.33
2023-05-05T01:55:16.274Z,227.27
2023-05-05T01:56:16.190Z,227.86
2023-05-05T01:57:16.088Z,227.56
2023-05-05T01:58:15.956Z,227.62
2023-05-05T01:59:15.758Z,227.81
2023-05-05T02:00:15.586Z,227.82
2023-05-05T02:01:15.438Z,228.31
2023-05-05T02:02:15.304Z,227.34
2023-05-05T02:03:15.192Z,227.31
2023-05-05T02:04:14.931Z,227.62
2023-05-05T02:05:14.765Z,225.76
2023-05-05T02:06:14.616Z,226.81
2023-05-05T02:07:14.436Z,226.55
2023-05-05T02:08:14.281Z,226.54
2023-05-05T02:09:14.119Z,227.93
2023-05-05T02:10:13.940Z,226.62
2023-05-05T02:11:13.821Z,226.77
2023-05-05T02:12:13.686Z,226.94
2023-05-05T02:13:13.652Z,226.26
2023-05-05T02:14:13.447Z,226.35
2023-05-05T02:15:13.357Z,226.01
2023-05-05T02:16:13.211Z,227.32
2023-05-05T02:17:13.079Z,225.30
2023-05-05T02:18:12.958Z,225.73
2023-05-05T02:19:12.827Z,226.86
2023-05-05T02:20:12.714Z,227.42
2023-05-05T02:21:12.583Z,225.82
2023-05-05T02:22:12.451Z,225.45
2023-05-05T02:23:12.361Z,227.53
2023-05-05T02:24:12.278Z,226.50
2023-05-05T02:25:12.140Z,226.59
2023-05-05T02:26:12.046Z,225.65
2023-05-05T02:27:11.948Z,225.45
2023-05-05T02:28:11.811Z,225.31
2023-05-05T02:29:11.686Z,226.89
2023-05-05T02:30:11.599Z,226.47
2023-05-05T02:31:11.566Z,225.25
2023-05-05T02:32:11.394Z,224.57
2023-05-05T02:33:11.319Z,225.22
2023-05-05T02:34:11.200Z,225.32
2023-05-05T02:35:11.114Z,225.52
2023-05-05T02:36:11.008Z,225.45
2023-05-05T02:37:10.892Z,224.54
2023-05-05T02:38:10.751Z,226.17
2023-05-05T02:39:10.652Z,224.76
2023-05-05T02:40:10.686Z,225.32
2023-05-05T02:41:10.406Z,225.67
2023-05-05T02:42:10.312Z,225.70
2023-05-05T02:43:10.262Z,225.31
2023-05-05T02:44:10.112Z,225.64
2023-05-05T02:45:10.047Z,225.40
2023-05-05T02:46:09.970Z,225.54
2023-05-05T02:47:09.823Z,224.97
2023-05-05T02:48:09.727Z,221.90
2023-05-05T02:49:09.557Z,214.88
2023-05-05T02:50:09.606Z,203.92
2023-05-05T02:51:09.298Z,195.67
2023-05-05T02:52:09.150Z,189.23
2023-05-05T02:53:08.972Z,181.95
2023-05-05T02:54:08.841Z,174.56
2023-05-05T02:55:08.686Z,169.69
2023-05-05T02:56:08.545Z,163.24
2023-05-05T02:57:08.394Z,158.10
2023-05-05T02:58:08.294Z,153.68
2023-05-05T02:59:08.155Z,148.37
2023-05-05T03:00:08.192Z,141.01
2023-05-05T03:01:08.000Z,137.20
2023-05-05T03:02:07.797Z,131.58
2023-05-05T03:03:07.849Z,127.62
2023-05-05T03:04:07.730Z,121.56
2023-05-05T03:05:07.525Z,119.42
2023-05-05T03:06:07.427Z,116.00
2023-05-05T03:07:07.323Z,111.06
2023-05-05T03:08:07.221Z,107.10
2023-05-05T03:09:07.125Z,103.80
2023-05-05T03:10:07.231Z,99.80
2023-05-05T03:11:06.935Z,95.71
2023-05-05T03:12:06.849Z,92.29
2023-05-05T03:13:06.784Z,90.28
2023-05-05T03:14:06.647Z,86.82
2023-05-05T03:15:06.558Z,83.77
2023-05-05T03:16:06.514Z,81.02
2023-05-05T03:17:06.400Z,77.91
2023-05-05T03:18:06.348Z,77.14
2023-05-05T03:19:06.096Z,73.82
2023-05-05T03:20:06.075Z,72.09
2023-05-05T03:21:05.862Z,70.49
2023-05-05T03:22:05.743Z,68.92
2023-05-05T03:23:05.646Z,66.51
2023-05-05T03:24:05.541Z,64.13
2023-05-05T03:25:05.428Z,64.26
2023-05-05T03:26:05.320Z,63.18
2023-05-05T03:27:05.237Z,61.18
2023-05-05T03:28:05.094Z,59.36
2023-05-05T03:29:05.000Z,59.80
2023-05-05T03:30:04.906Z,58.20
2023-05-05T03:31:04.743Z,57.40
2023-05-05T03:32:04.683Z,56.45
2023-05-05T03:33:04.523Z,54.37
2023-05-05T03:34:04.363Z,52.08
2023-05-05T03:35:04.250Z,51.85
2023-05-05T03:36:04.099Z,51.70
2023-05-05T03:37:03.961Z,51.18
2023-05-05T03:38:03.833Z,48.50
2023-05-05T03:39:03.729Z,46.84
2023-05-05T03:40:03.552Z,48.43
2023-05-05T03:41:03.482Z,47.27
2023-05-05T03:42:03.294Z,46.91
2023-05-05T03:43:03.170Z,46.59
2023-05-05T03:44:03.015Z,45.40
2023-05-05T03:45:02.886Z,45.72
2023-05-05T03:46:02.751Z,44.42
2023-05-05T03:47:02.620Z,42.79
2023-05-05T03:48:02.534Z,42.32
2023-05-05T03:49:02.340Z,44.02
2023-05-05T03:50:02.249Z,42.13
2023-05-05T03:51:02.070Z,43.24
2023-05-05T03:52:01.926Z,41.64
2023-05-05T03:53:01.814Z,40.67
2023-05-05T03:54:01.677Z,39.94
2023-05-05T03:55:01.560Z,41.17
2023-05-05T03:56:01.430Z,37.86
2023-05-05T03:57:01.318Z,38.76
2023-05-05T03:58:01.202Z,40.58
2023-05-05T03:59:01.066Z,38.37
2023-05-05T04:00:00.958Z,38.80
2023-05-05T04:01:00.864Z,41.88
2023-05-05T04:02:00.806Z,41.88
2023-05-05T04:03:00.590Z,41.49
2023-05-05T04:04:00.419Z,42.09
2023-05-05T04:05:00.252Z,42.35
2023-05-05T04:06:00.130Z,42.56
2023-05-05T04:06:59.952Z,43.19
2023-05-05T04:07:59.810Z,45.08
2023-05-05T04:08:59.663Z,44.72
2023-05-05T04:09:59.520Z,44.93
2023-05-05T04:10:59.357Z,43.57
2023-05-05T04:11:59.202Z,44.69
2023-05-05T04:12:59.125Z,45.60
2023-05-05T04:13:58.914Z,48.52
2023-05-05T04:14:58.775Z,48.29
2023-05-05T04:15:58.662Z,47.64
2023-05-05T04:16:58.485Z,46.94
2023-05-05T04:17:58.365Z,49.98
2023-05-05T04:18:58.191Z,47.54
2023-05-05T04:19:58.049Z,48.37
2023-05-05T04:20:57.899Z,47.82
2023-05-05T04:21:57.833Z,45.94
2023-05-05T04:22:57.638Z,45.78
2023-05-05T04:23:57.523Z,44.82
2023-05-05T04:24:57.405Z,47.80
2023-05-05T04:25:57.302Z,44.93
2023-05-05T04:26:57.192Z,47.68
2023-05-05T04:27:57.071Z,46.90
2023-05-05T04:28:56.951Z,47.17
2023-05-05T04:29:56.839Z,45.38
2023-05-05T04:30:56.762Z,45.35
2023-05-05T04:31:56.626Z,45.55
2023-05-05T04:32:56.639Z,41.46
2023-05-05T04:33:56.383Z,42.85
2023-05-05T04:34:56.280Z,41.59
2023-05-05T04:35:56.174Z,42.62
2023-05-05T04:36:56.061Z,41.99
2023-05-05T04:37:55.950Z,43.05
2023-05-05T04:38:55.887Z,42.83
2023-05-05T04:39:55.730Z,41.02
2023-05-05T04:40:55.599Z,42.72
2023-05-05T04:41:55.484Z,43.48
2023-05-05T04:42:55.368Z,42.89
2023-05-05T04:43:55.267Z,44.10
2023-05-05T04:44:55.146Z,43.53
2023-05-05T04:45:55.036Z,43.24
2023-05-05T04:46:54.941Z,45.20
2023-05-05T04:47:54.837Z,45.45
2023-05-05T04:48:54.692Z,44.31
2023-05-05T04:49:54.590Z,45.32
2023-05-05T04:50:54.470Z,44.60
2023-05-05T04:51:54.359Z,44.44
2023-05-05T04:52:54.251Z,45.74
2023-05-05T04:53:54.119Z,45.87
2023-05-05T04:54:54.010Z,44.14
2023-05-05T04:55:53.894Z,46.36
2023-05-05T04:56:53.810Z,45.96
2023-05-05T04:57:53.694Z,46.26
2023-05-05T04:58:53.571Z,43.21
2023-05-05T04:59:53.476Z,44.84
2023-05-05T05:00:53.343Z,48.30
2023-05-05T05:01:53.242Z,55.19
2023-05-05T05:02:53.185Z,55.55
2023-05-05T05:03:52.942Z,59.58
2023-05-05T05:04:52.766Z,56.56
2023-05-05T05:05:52.677Z,62.19
2023-05-05T05:06:52.462Z,72.25
2023-05-05T05:07:52.344Z,88.07
2023-05-05T05:08:52.175Z,110.02
2023-05-05T05:09:52.008Z,114.32
2023-05-05T05:10:51.844Z,117.10
2023-05-05T05:11:51.687Z,118.89
2023-05-05T05:12:51.545Z,121.40
2023-05-05T05:13:51.411Z,122.83
2023-05-05T05:14:51.315Z,125.20
2023-05-05T05:15:51.234Z,127.44
2023-05-05T05:16:51.230Z,129.66
2023-05-05T05:17:51.079Z,132.64
2023-05-05T05:18:50.964Z,135.34
2023-05-05T05:19:50.869Z,138.47
2023-05-05T05:20:50.754Z,138.88
2023-05-05T05:21:50.675Z,142.26
2023-05-05T05:22:50.533Z,144.53
2023-05-05T05:23:50.435Z,146.13
2023-05-05T05:24:50.254Z,146.24
2023-05-05T05:25:50.113Z,146.63
2023-05-05T05:26:49.938Z,147.74
2023-05-05T05:27:58.549Z,149.75
2023-05-05T05:28:50.637Z,146.43
2023-05-05T05:29:49.537Z,147.55
2023-05-05T05:30:49.321Z,149.51
2023-05-05T05:31:49.247Z,154.66
2023-05-05T05:32:49.000Z,160.61
2023-05-05T05:33:48.857Z,162.88
2023-05-05T05:34:48.685Z,156.90
2023-05-05T05:35:48.532Z,164.87
2023-05-05T05:36:48.387Z,162.21
2023-05-05T05:37:48.229Z,161.22
2023-05-05T05:38:48.157Z,153.17
2023-05-05T05:39:47.904Z,154.00
2023-05-05T05:40:47.761Z,153.03
2023-05-05T05:41:47.593Z,151.25
2023-05-05T05:42:47.459Z,149.44
2023-05-05T05:43:47.310Z,148.84
2023-05-05T05:44:47.138Z,146.47
